createdAt,value
2019-02-06T00:00:36.058Z,-3.21
2019-02-06T00:03:07.524Z,-3.27
2019-02-06T00:05:38.560Z,-3.27
2019-02-06T00:08:09.906Z,-3.24
2019-02-06T00:10:41.003Z,-3.24
2019-02-06T00:13:11.960Z,-3.26
2019-02-06T00:15:43.004Z,-3.28
2019-02-06T00:18:14.386Z,-3.22
2019-02-06T00:20:45.382Z,-3.34
2019-02-06T00:23:16.478Z,-3.34
2019-02-06T00:25:47.472Z,-3.39
2019-02-06T00:28:18.503Z,-3.40
2019-02-06T00:30:50.067Z,-3.47
2019-02-06T00:33:21.166Z,-3.45
2019-02-06T00:35:52.403Z,-3.42
2019-02-06T00:38:23.487Z,-3.36
2019-02-06T00:40:54.511Z,-3.43
2019-02-06T00:43:25.914Z,-3.42
2019-02-06T00:45:57.103Z,-3.37
2019-02-06T00:48:28.197Z,-3.43
2019-02-06T00:50:59.198Z,-3.46
2019-02-06T00:53:30.248Z,-3.51
2019-02-06T00:56:01.404Z,-3.49
2019-02-06T00:58:32.443Z,-3.44
2019-02-06T01:01:05.961Z,-3.48
2019-02-06T01:03:36.937Z,-3.50
2019-02-06T01:06:08.079Z,-3.54
2019-02-06T01:08:39.250Z,-3.68
2019-02-06T01:11:10.463Z,-3.72
2019-02-06T01:13:41.341Z,-3.74
2019-02-06T01:16:12.449Z,-3.75
2019-02-06T01:18:43.429Z,-3.74
2019-02-06T01:21:14.511Z,-3.75
2019-02-06T01:23:45.980Z,-3.75
2019-02-06T01:26:16.991Z,-3.85
2019-02-06T01:28:48.131Z,-3.84
2019-02-06T01:31:20.577Z,-3.88
2019-02-06T01:33:51.535Z,-4.01
2019-02-06T01:36:22.744Z,-4.00
2019-02-06T01:38:53.657Z,-4.01
2019-02-06T01:41:24.624Z,-4.00
2019-02-06T01:43:55.699Z,-4.00
2019-02-06T01:46:26.753Z,-4.00
2019-02-06T01:48:57.935Z,-4.06
2019-02-06T01:51:29.253Z,-4.04
2019-02-06T01:54:00.186Z,-4.03
2019-02-06T01:56:31.162Z,-4.05
2019-02-06T01:59:02.227Z,-4.04
2019-02-06T02:01:33.173Z,-4.02
2019-02-06T02:04:04.693Z,-4.04
2019-02-06T02:06:35.761Z,-4.09
2019-02-06T02:09:09.872Z,-4.12
2019-02-06T02:11:40.911Z,-4.10
2019-02-06T02:14:12.025Z,-4.04
2019-02-06T02:16:43.064Z,-4.00
2019-02-06T02:19:14.565Z,-3.96
2019-02-06T02:21:45.845Z,-4.01
2019-02-06T02:24:17.081Z,-4.10
2019-02-06T02:26:48.177Z,-4.16
2019-02-06T02:29:19.211Z,-4.19
2019-02-06T02:31:50.466Z,-4.15
2019-02-06T02:34:21.533Z,-4.10
2019-02-06T02:36:52.452Z,-4.14
2019-02-06T02:39:23.346Z,-4.11
2019-02-06T02:41:54.393Z,-4.11
2019-02-06T02:44:25.464Z,-4.13
2019-02-06T02:46:56.719Z,-4.15
2019-02-06T02:49:27.738Z,-4.21
2019-02-06T02:51:58.799Z,-4.20
2019-02-06T02:54:29.863Z,-4.24
2019-02-06T02:57:01.178Z,-4.26
2019-02-06T02:59:32.260Z,-4.28
2019-02-06T03:02:04.942Z,-4.29
2019-02-06T03:04:35.980Z,-4.27
2019-02-06T03:07:07.241Z,-4.25
2019-02-06T03:09:38.753Z,-4.18
2019-02-06T03:12:09.721Z,-4.25
2019-02-06T03:14:40.758Z,-4.19
2019-02-06T03:17:11.768Z,-4.24
2019-02-06T03:19:42.862Z,-4.32
2019-02-06T03:22:13.840Z,-4.36
2019-02-06T03:24:44.768Z,-4.39
2019-02-06T03:27:15.735Z,-4.37
2019-02-06T03:29:46.781Z,-4.37
2019-02-06T03:32:17.911Z,-4.41
2019-02-06T03:34:48.901Z,-4.47
2019-02-06T03:37:19.863Z,-4.55
2019-02-06T03:39:50.923Z,-4.56
2019-02-06T03:42:21.975Z,-4.53
2019-02-06T03:44:53.230Z,-4.54
2019-02-06T03:47:24.260Z,-4.49
2019-02-06T03:49:55.622Z,-4.46
2019-02-06T03:52:26.623Z,-4.44
2019-02-06T03:54:57.738Z,-4.45
2019-02-06T03:57:28.686Z,-4.38
2019-02-06T03:59:59.871Z,-4.43
2019-02-06T04:02:30.938Z,-4.38
2019-02-06T04:05:02.046Z,-4.45
2019-02-06T04:07:33.047Z,-4.42
2019-02-06T04:10:06.371Z,-4.48
2019-02-06T04:12:37.550Z,-4.54
2019-02-06T04:15:09.782Z,-4.60
2019-02-06T04:17:40.861Z,-4.64
2019-02-06T04:20:18.080Z,-4.65
2019-02-06T04:22:49.174Z,-4.68
2019-02-06T04:25:20.215Z,-4.70
2019-02-06T04:27:51.615Z,-4.70
2019-02-06T04:30:22.603Z,-4.63
2019-02-06T04:32:53.545Z,-4.56
2019-02-06T04:35:24.611Z,-4.54
2019-02-06T04:37:55.741Z,-4.56
2019-02-06T04:40:26.854Z,-4.63
2019-02-06T04:42:57.916Z,-4.66
2019-02-06T04:45:28.995Z,-4.73
2019-02-06T04:47:59.988Z,-4.75
2019-02-06T04:50:31.248Z,-4.77
2019-02-06T04:53:02.285Z,-4.76
2019-02-06T04:55:33.543Z,-4.78
2019-02-06T04:58:04.999Z,-4.77
2019-02-06T05:00:36.099Z,-4.71
2019-02-06T05:03:07.099Z,-4.68
2019-02-06T05:05:38.258Z,-4.62
2019-02-06T05:08:11.307Z,-4.73
2019-02-06T05:10:42.451Z,-4.73
2019-02-06T05:13:13.505Z,-4.70
2019-02-06T05:15:44.579Z,-4.75
2019-02-06T05:18:15.741Z,-4.81
2019-02-06T05:20:46.864Z,-4.85
2019-02-06T05:23:17.805Z,-4.87
2019-02-06T05:25:49.095Z,-4.88
2019-02-06T05:28:20.063Z,-4.88
2019-02-06T05:30:51.003Z,-4.95
2019-02-06T05:33:21.977Z,-4.99
2019-02-06T05:35:53.253Z,-5.03
2019-02-06T05:38:24.221Z,-5.06
2019-02-06T05:40:55.399Z,-5.09
2019-02-06T05:43:26.449Z,-5.11
2019-02-06T05:45:57.421Z,-5.10
2019-02-06T05:48:28.477Z,-5.04
2019-02-06T05:50:59.579Z,-5.00
2019-02-06T05:53:30.591Z,-4.95
2019-02-06T05:56:01.611Z,-5.03
2019-02-06T05:58:32.896Z,-4.95
2019-02-06T06:01:04.310Z,-4.97
2019-02-06T06:03:35.546Z,-4.94
2019-02-06T06:06:06.795Z,-4.99
2019-02-06T06:08:37.899Z,-4.92
2019-02-06T06:11:08.875Z,-4.91
2019-02-06T06:13:39.911Z,-4.88
2019-02-06T06:16:14.037Z,-4.86
2019-02-06T06:18:45.066Z,-4.81
2019-02-06T06:21:16.085Z,-4.82
2019-02-06T06:23:47.115Z,-4.78
2019-02-06T06:26:18.029Z,-4.76
2019-02-06T06:28:49.205Z,-4.72
2019-02-06T06:31:20.706Z,-4.69
2019-02-06T06:33:51.612Z,-4.67
2019-02-06T06:36:22.669Z,-4.72
2019-02-06T06:38:53.670Z,-4.77
2019-02-06T06:41:24.595Z,-4.74
2019-02-06T06:43:56.003Z,-4.72
2019-02-06T06:46:27.074Z,-4.77
2019-02-06T06:48:58.349Z,-4.71
2019-02-06T06:51:29.447Z,-4.65
2019-02-06T06:54:00.436Z,-4.65
2019-02-06T06:56:31.402Z,-4.62
2019-02-06T06:59:02.491Z,-4.60
2019-02-06T07:01:33.386Z,-4.56
2019-02-06T07:04:04.450Z,-4.56
2019-02-06T07:06:35.516Z,-4.49
2019-02-06T07:09:08.654Z,-4.43
2019-02-06T07:11:39.703Z,-4.41
2019-02-06T07:14:10.744Z,-4.48
2019-02-06T07:16:42.126Z,-4.44
2019-02-06T07:19:13.068Z,-4.48
2019-02-06T07:21:44.178Z,-4.41
2019-02-06T07:24:15.449Z,-4.40
2019-02-06T07:26:49.108Z,-4.35
2019-02-06T07:29:20.071Z,-4.35
2019-02-06T07:31:51.073Z,-4.29
2019-02-06T07:34:22.146Z,-4.22
2019-02-06T07:36:53.350Z,-4.16
2019-02-06T07:39:24.536Z,-4.02
2019-02-06T07:41:55.417Z,-3.93
2019-02-06T07:44:26.328Z,-3.95
2019-02-06T07:46:57.250Z,-3.87
2019-02-06T07:49:28.536Z,-3.92
2019-02-06T07:51:59.562Z,-3.86
2019-02-06T07:54:30.537Z,-3.83
2019-02-06T07:57:01.568Z,-3.80
2019-02-06T07:59:32.683Z,-3.86
2019-02-06T08:02:03.745Z,-3.88
2019-02-06T08:04:34.725Z,-3.88
2019-02-06T08:07:05.855Z,-3.88
2019-02-06T08:09:37.106Z,-3.82
2019-02-06T08:12:08.058Z,-3.77
2019-02-06T08:14:39.134Z,-3.73
2019-02-06T08:17:10.421Z,-3.69
2019-02-06T08:19:41.513Z,-3.68
2019-02-06T08:22:12.582Z,-3.57
2019-02-06T08:24:43.621Z,-3.43
2019-02-06T08:27:14.588Z,-3.39
2019-02-06T08:29:45.707Z,-3.23
2019-02-06T08:32:19.473Z,-3.42
2019-02-06T08:34:50.745Z,-3.44
2019-02-06T08:37:22.240Z,-3.50
2019-02-06T08:39:53.280Z,-3.50
2019-02-06T08:42:24.357Z,-3.55
2019-02-06T08:44:55.387Z,-3.49
2019-02-06T08:47:26.463Z,-3.47
2019-02-06T08:49:57.421Z,-3.43
2019-02-06T08:52:28.544Z,-3.36
2019-02-06T08:54:59.545Z,-3.42
2019-02-06T08:57:30.649Z,-3.40
2019-02-06T09:00:01.532Z,-3.42
2019-02-06T09:02:32.912Z,-3.39
2019-02-06T09:05:07.643Z,-3.33
2019-02-06T09:07:38.339Z,-3.33
2019-02-06T09:10:13.424Z,-3.08
2019-02-06T09:12:44.577Z,-3.03
2019-02-06T09:15:15.959Z,-3.03
2019-02-06T09:17:47.145Z,-3.02
2019-02-06T09:20:20.508Z,-2.91
2019-02-06T09:22:51.814Z,-2.86
2019-02-06T09:25:26.946Z,-3.05
2019-02-06T09:27:57.997Z,-2.99
2019-02-06T09:30:34.201Z,-2.96
2019-02-06T09:33:05.757Z,-2.92
2019-02-06T09:35:36.809Z,-2.75
2019-02-06T09:38:07.912Z,-2.46
2019-02-06T09:40:38.883Z,-2.29
2019-02-06T09:43:09.861Z,-2.07
2019-02-06T09:45:40.826Z,-2.04
2019-02-06T09:48:11.862Z,-2.10
2019-02-06T09:50:42.895Z,-2.16
2019-02-06T09:53:13.851Z,-2.33
2019-02-06T09:55:44.874Z,-2.36
2019-02-06T09:58:15.902Z,-2.31
2019-02-06T10:00:48.851Z,-2.28
2019-02-06T10:03:19.731Z,-2.11
2019-02-06T10:05:50.789Z,-1.84
2019-02-06T10:08:21.781Z,-1.68
2019-02-06T10:10:52.885Z,-1.70
2019-02-06T10:13:23.712Z,-1.66
2019-02-06T10:15:54.686Z,-1.80
2019-02-06T10:18:25.769Z,-1.94
2019-02-06T10:20:56.837Z,-2.06
2019-02-06T10:23:27.930Z,-2.04
2019-02-06T10:25:58.888Z,-1.71
2019-02-06T10:28:30.351Z,-1.53
2019-02-06T10:31:01.537Z,-1.53
2019-02-06T10:33:32.503Z,-1.64
2019-02-06T10:36:03.473Z,-1.48
2019-02-06T10:38:34.453Z,-1.10
2019-02-06T10:41:05.784Z,-0.88
2019-02-06T10:43:36.981Z,-1.11
2019-02-06T10:46:08.019Z,-1.12
2019-02-06T10:48:38.963Z,-1.17
2019-02-06T10:51:10.214Z,-1.11
2019-02-06T10:53:41.737Z,-0.72
2019-02-06T10:56:12.819Z,-0.66
2019-02-06T10:58:43.793Z,-0.27
2019-02-06T11:01:14.698Z,-0.23
2019-02-06T11:03:45.629Z,-0.08
2019-02-06T11:06:16.689Z,0.10
2019-02-06T11:08:47.615Z,0.63
2019-02-06T11:11:18.651Z,0.55
2019-02-06T11:13:49.988Z,0.66
2019-02-06T11:16:21.489Z,0.32
2019-02-06T11:18:52.436Z,0.20
2019-02-06T11:21:23.644Z,0.44
2019-02-06T11:23:54.593Z,0.89
2019-02-06T11:26:26.007Z,1.03
2019-02-06T11:28:56.908Z,1.88
2019-02-06T11:31:27.878Z,1.58
2019-02-06T11:33:59.319Z,2.76
2019-02-06T11:36:30.453Z,2.19
2019-02-06T11:39:01.403Z,2.30
2019-02-06T11:41:32.579Z,2.08
2019-02-06T11:44:04.223Z,3.17
2019-02-06T11:46:35.178Z,4.64
2019-02-06T11:49:07.021Z,4.96
2019-02-06T11:51:40.856Z,4.58
2019-02-06T11:54:13.132Z,4.72
2019-02-06T11:56:44.283Z,5.38
2019-02-06T11:59:15.531Z,5.33
2019-02-06T12:01:46.654Z,5.11
2019-02-06T12:04:17.913Z,6.16
2019-02-06T12:06:49.012Z,5.67
2019-02-06T12:09:20.058Z,5.71
2019-02-06T12:11:51.015Z,4.97
2019-02-06T12:14:22.008Z,4.46
2019-02-06T12:16:53.180Z,4.65
2019-02-06T12:19:24.227Z,5.17
2019-02-06T12:21:55.287Z,4.83
2019-02-06T12:24:32.002Z,4.14
2019-02-06T12:27:03.057Z,4.20
2019-02-06T12:29:34.016Z,4.54
2019-02-06T12:32:05.560Z,4.69
2019-02-06T12:34:36.518Z,5.47
2019-02-06T12:37:07.414Z,6.15
2019-02-06T12:39:38.848Z,6.72
2019-02-06T12:42:10.386Z,6.67
2019-02-06T12:44:42.798Z,6.57
2019-02-06T12:47:14.380Z,6.13
2019-02-06T12:49:45.552Z,5.98
2019-02-06T12:52:16.635Z,6.08
2019-02-06T12:54:48.248Z,6.25
2019-02-06T12:57:19.285Z,6.72
2019-02-06T12:59:50.243Z,7.99
2019-02-06T13:02:21.431Z,6.88
2019-02-06T13:04:54.070Z,7.50
2019-02-06T13:07:25.120Z,7.39
2019-02-06T13:09:56.165Z,6.68
2019-02-06T13:12:27.432Z,7.24
2019-02-06T13:14:58.854Z,6.83
2019-02-06T13:17:29.868Z,7.17
2019-02-06T13:20:00.974Z,6.79
2019-02-06T13:22:34.052Z,6.12
2019-02-06T13:25:07.856Z,6.86
2019-02-06T13:27:38.800Z,6.92
2019-02-06T13:30:21.469Z,6.97
2019-02-06T13:32:52.842Z,7.39
2019-02-06T13:35:23.897Z,6.80
2019-02-06T13:37:54.993Z,7.02
2019-02-06T13:40:29.901Z,5.09
2019-02-06T13:43:01.041Z,4.99
2019-02-06T13:45:43.581Z,5.20
2019-02-06T13:48:14.622Z,6.35
2019-02-06T13:50:47.413Z,7.08
2019-02-06T13:53:18.441Z,7.62
2019-02-06T13:55:49.855Z,7.13
2019-02-06T13:58:21.001Z,6.29
2019-02-06T14:00:52.641Z,6.42
2019-02-06T14:03:23.756Z,6.23
2019-02-06T14:05:54.912Z,6.01
2019-02-06T14:08:28.611Z,5.38
2019-02-06T14:11:00.841Z,5.83
2019-02-06T14:13:32.172Z,5.14
2019-02-06T14:16:03.623Z,5.14
2019-02-06T14:18:34.684Z,4.82
2019-02-06T14:21:05.861Z,4.64
2019-02-06T14:23:39.817Z,4.26
2019-02-06T14:26:16.338Z,4.39
2019-02-06T14:29:11.007Z,4.03
2019-02-06T14:31:56.221Z,4.03
2019-02-06T14:34:41.993Z,3.87
2019-02-06T14:37:27.674Z,3.96
2019-02-06T14:40:01.451Z,4.52
2019-02-06T14:42:41.022Z,4.33
2019-02-06T14:45:27.345Z,3.36
2019-02-06T14:48:07.103Z,2.83
2019-02-06T14:51:00.383Z,3.86
2019-02-06T14:53:49.397Z,3.02
2019-02-06T14:56:26.367Z,3.55
2019-02-06T14:59:20.518Z,3.23
2019-02-06T15:02:12.651Z,2.86
2019-02-06T15:04:55.367Z,2.80
2019-02-06T15:07:35.189Z,2.33
2019-02-06T15:10:29.054Z,2.32
2019-02-06T15:13:21.215Z,2.73
2019-02-06T15:16:04.082Z,2.80
2019-02-06T15:18:38.093Z,2.15
2019-02-06T15:21:39.522Z,2.28
2019-02-06T15:24:38.071Z,1.73
2019-02-06T15:27:33.026Z,1.12
2019-02-06T15:30:20.033Z,0.88
2019-02-06T15:33:08.545Z,0.90
2019-02-06T15:35:45.663Z,0.92
2019-02-06T15:38:46.669Z,0.74
2019-02-06T15:41:31.311Z,0.49
2019-02-06T15:44:05.431Z,0.10
2019-02-06T15:46:42.430Z,-0.18
2019-02-06T15:49:33.221Z,-0.29
2019-02-06T15:52:18.987Z,-0.58
2019-02-06T15:54:58.769Z,-0.89
2019-02-06T15:57:41.504Z,-1.03
2019-02-06T16:00:27.572Z,-1.16
2019-02-06T16:03:07.618Z,-1.30
2019-02-06T16:05:59.424Z,-1.41
2019-02-06T16:08:42.321Z,-1.48
2019-02-06T16:11:27.864Z,-1.57
2019-02-06T16:14:07.339Z,-1.65
2019-02-06T16:16:44.271Z,-1.75
2019-02-06T16:19:47.670Z,-1.79
2019-02-06T16:22:33.743Z,-1.84
2019-02-06T16:25:07.714Z,-1.96
2019-02-06T16:27:44.245Z,-2.04
2019-02-06T16:30:24.152Z,-2.09
2019-02-06T16:33:19.550Z,-2.14
2019-02-06T16:35:56.323Z,-2.15
2019-02-06T16:38:33.157Z,-2.22
2019-02-06T16:41:25.190Z,-2.30
2019-02-06T16:44:02.148Z,-2.35
2019-02-06T16:46:36.114Z,-2.42
2019-02-06T16:49:16.370Z,-2.47
2019-02-06T16:51:59.373Z,-2.47
2019-02-06T16:54:45.159Z,-2.53
2019-02-06T16:57:33.526Z,-2.59
2019-02-06T17:00:19.080Z,-2.66
2019-02-06T17:02:53.432Z,-2.68
2019-02-06T17:05:36.765Z,-2.74
2019-02-06T17:08:10.747Z,-2.77
2019-02-06T17:11:06.750Z,-2.85
2019-02-06T17:13:57.040Z,-2.91
2019-02-06T17:16:49.484Z,-2.96
2019-02-06T17:19:29.226Z,-3.00
2019-02-06T17:22:18.410Z,-3.08
2019-02-06T17:25:06.061Z,-3.10
2019-02-06T17:27:49.208Z,-3.09
2019-02-06T17:30:42.852Z,-3.15
2019-02-06T17:33:16.876Z,-3.22
2019-02-06T17:35:56.980Z,-3.21
2019-02-06T17:38:56.588Z,-3.18
2019-02-06T17:41:36.173Z,-3.19
2019-02-06T17:44:17.404Z,-3.16
2019-02-06T17:46:57.371Z,-3.19
2019-02-06T17:49:40.395Z,-3.20
2019-02-06T17:52:14.395Z,-3.23
2019-02-06T17:55:20.120Z,-3.24
2019-02-06T17:57:52.590Z,-3.27
2019-02-06T18:00:48.058Z,-3.26
2019-02-06T18:03:20.164Z,-3.29
2019-02-06T18:05:53.527Z,-3.32
2019-02-06T18:08:24.562Z,-3.31
2019-02-06T18:10:58.680Z,-3.29
2019-02-06T18:13:33.076Z,-3.26
2019-02-06T18:16:04.305Z,-3.31
2019-02-06T18:18:35.423Z,-3.34
2019-02-06T18:21:06.626Z,-3.32
2019-02-06T18:23:37.815Z,-3.29
2019-02-06T18:26:09.215Z,-3.33
2019-02-06T18:28:40.485Z,-3.36
2019-02-06T18:31:11.862Z,-3.36
2019-02-06T18:33:43.067Z,-3.35
2019-02-06T18:36:14.116Z,-3.36
2019-02-06T18:38:47.091Z,-3.37
2019-02-06T18:41:20.997Z,-3.39
2019-02-06T18:44:04.544Z,-3.38
2019-02-06T18:46:35.795Z,-3.44
2019-02-06T18:49:07.230Z,-3.46
2019-02-06T18:51:38.767Z,-3.46
2019-02-06T18:54:10.302Z,-3.42
2019-02-06T18:56:41.447Z,-3.41
2019-02-06T18:59:12.738Z,-3.36
2019-02-06T19:01:45.471Z,-3.37
2019-02-06T19:04:16.491Z,-3.37
2019-02-06T19:06:47.524Z,-3.36
2019-02-06T19:09:18.751Z,-3.35
2019-02-06T19:11:49.991Z,-3.34
2019-02-06T19:14:23.061Z,-3.38
2019-02-06T19:16:54.179Z,-3.34
2019-02-06T19:19:25.834Z,-3.32
2019-02-06T19:21:56.790Z,-3.30
2019-02-06T19:24:30.420Z,-3.32
2019-02-06T19:27:02.796Z,-3.32
2019-02-06T19:29:34.020Z,-3.35
2019-02-06T19:32:05.383Z,-3.37
2019-02-06T19:34:36.436Z,-3.39
2019-02-06T19:37:07.546Z,-3.42
2019-02-06T19:39:38.771Z,-3.42
2019-02-06T19:42:10.379Z,-3.43
2019-02-06T19:44:59.302Z,-3.41
2019-02-06T19:47:32.143Z,-3.40
2019-02-06T19:50:04.323Z,-3.41
2019-02-06T19:52:40.260Z,-3.47
2019-02-06T19:55:14.019Z,-3.44
2019-02-06T19:57:45.200Z,-3.47
2019-02-06T20:00:22.140Z,-3.51
2019-02-06T20:02:53.214Z,-3.49
2019-02-06T20:05:24.624Z,-3.53
2019-02-06T20:07:55.788Z,-3.55
2019-02-06T20:10:35.445Z,-3.59
2019-02-06T20:13:12.335Z,-3.60
2019-02-06T20:15:39.877Z,-3.64
2019-02-06T20:18:11.163Z,-3.68
2019-02-06T20:20:42.112Z,-3.73
2019-02-06T20:23:13.253Z,-3.77
2019-02-06T20:25:45.471Z,-3.82
2019-02-06T20:28:16.569Z,-3.80
2019-02-06T20:30:47.726Z,-3.85
2019-02-06T20:33:19.394Z,-3.91
2019-02-06T20:35:50.558Z,-3.91
2019-02-06T20:38:21.702Z,-3.89
2019-02-06T20:40:52.931Z,-3.92
2019-02-06T20:43:23.951Z,-3.96
2019-02-06T20:45:54.939Z,-4.01
2019-02-06T20:48:26.162Z,-4.05
2019-02-06T20:50:57.304Z,-4.08
2019-02-06T20:53:28.393Z,-4.11
2019-02-06T20:55:59.506Z,-4.17
2019-02-06T20:58:30.624Z,-4.28
2019-02-06T21:01:01.779Z,-4.34
2019-02-06T21:03:32.808Z,-4.39
2019-02-06T21:06:03.990Z,-4.40
2019-02-06T21:08:35.244Z,-4.39
2019-02-06T21:11:06.472Z,-4.38
2019-02-06T21:13:37.526Z,-4.39
2019-02-06T21:16:09.223Z,-4.42
2019-02-06T21:18:40.149Z,-4.41
2019-02-06T21:21:11.206Z,-4.40
2019-02-06T21:23:42.262Z,-4.40
2019-02-06T21:26:13.531Z,-4.45
2019-02-06T21:28:44.564Z,-4.45
2019-02-06T21:31:15.734Z,-4.44
2019-02-06T21:33:46.788Z,-4.38
2019-02-06T21:36:17.894Z,-4.35
2019-02-06T21:38:49.031Z,-4.33
2019-02-06T21:41:20.097Z,-4.34
2019-02-06T21:43:51.131Z,-4.35
2019-02-06T21:46:22.247Z,-4.40
2019-02-06T21:48:53.366Z,-4.40
2019-02-06T21:51:24.402Z,-4.38
2019-02-06T21:53:55.841Z,-4.35
2019-02-06T21:56:27.189Z,-4.36
2019-02-06T21:58:58.452Z,-4.40
2019-02-06T22:01:30.279Z,-4.45
2019-02-06T22:04:01.541Z,-4.52
2019-02-06T22:06:32.527Z,-4.57
2019-02-06T22:09:04.598Z,-4.67
2019-02-06T22:11:35.751Z,-4.75
2019-02-06T22:14:06.952Z,-4.73
2019-02-06T22:16:38.086Z,-4.71
2019-02-06T22:19:09.560Z,-4.69
2019-02-06T22:21:40.849Z,-4.66
2019-02-06T22:24:11.887Z,-4.57
2019-02-06T22:26:42.943Z,-4.53
2019-02-06T22:29:14.014Z,-4.50
2019-02-06T22:31:45.177Z,-4.48
2019-02-06T22:34:16.440Z,-4.47
2019-02-06T22:36:47.540Z,-4.42
2019-02-06T22:39:18.621Z,-4.42
2019-02-06T22:41:49.764Z,-4.44
2019-02-06T22:44:20.838Z,-4.51
2019-02-06T22:46:51.847Z,-4.58
2019-02-06T22:49:22.811Z,-4.58
2019-02-06T22:51:53.882Z,-4.59
2019-02-06T22:54:25.026Z,-4.56
2019-02-06T22:56:56.689Z,-4.57
2019-02-06T22:59:27.670Z,-4.61
2019-02-06T23:01:58.767Z,-4.65
2019-02-06T23:04:30.167Z,-4.67
2019-02-06T23:07:01.283Z,-4.68
2019-02-06T23:09:32.714Z,-4.71
2019-02-06T23:12:04.097Z,-4.71
2019-02-06T23:14:35.165Z,-4.72
2019-02-06T23:17:06.322Z,-4.69
2019-02-06T23:19:37.410Z,-4.65
2019-02-06T23:22:08.512Z,-4.60
2019-02-06T23:24:39.651Z,-4.64
2019-02-06T23:27:10.719Z,-4.60
2019-02-06T23:29:41.769Z,-4.60
2019-02-06T23:32:12.949Z,-4.61
2019-02-06T23:34:43.903Z,-4.57
2019-02-06T23:37:14.949Z,-4.56
2019-02-06T23:39:45.889Z,-4.61
2019-02-06T23:42:16.975Z,-4.56
2019-02-06T23:44:48.040Z,-4.54
2019-02-06T23:47:19.109Z,-4.62
2019-02-06T23:49:50.232Z,-4.67
2019-02-06T23:52:21.491Z,-4.68
2019-02-06T23:54:52.480Z,-4.68
2019-02-06T23:57:23.618Z,-4.66
2019-02-06T23:59:54.657Z,-4.65
